| time (UTC) | temp F | wind direction | speed knots | gust knots | rain 1hr in | rain 24hr in | rain mn in | humidity % | barometer mb |
| 20260510120003 | 52 | 220 | 0.0 | 0.0 | 0.00 | 0.26 | 0.00 | 94 | 1012.1 |
| 20260510115504 | 52 | 221 | 0.0 | 0.0 | 0.00 | 0.26 | 0.00 | 94 | 1012.1 |
| 20260510115003 | 51 | 221 | 0.0 | 0.0 | 0.00 | 0.26 | 0.00 | 94 | 1012.1 |
| 20260510114003 | 51 | 180 | 0.0 | 0.0 | 0.00 | 0.26 | 0.00 | 94 | 1011.8 |
| 20260510113503 | 51 | 180 | 0.0 | 0.0 | 0.00 | 0.26 | 0.00 | 94 | 1011.8 |
| 20260510113003 | 51 | 180 | 0.0 | 0.0 | 0.00 | 0.26 | 0.00 | 94 | 1011.7 |
| 20260510112504 | 51 | 180 | 0.0 | 0.0 | 0.00 | 0.26 | 0.00 | 94 | 1011.7 |
| 20260510112003 | 51 | 180 | 0.0 | 0.0 | 0.00 | 0.26 | 0.00 | 94 | 1011.6 |
| 20260510111003 | 51 | 180 | 0.0 | 0.0 | 0.00 | 0.26 | 0.00 | 94 | 1011.5 |
| 20260510110503 | 51 | 180 | 0.0 | 0.0 | 0.00 | 0.26 | 0.00 | 94 | 1011.4 |
| 20260510110002 | 51 | 180 | 0.0 | 0.0 | 0.00 | 0.26 | 0.00 | 94 | 1011.3 |
| 20260510105504 | 51 | 180 | 0.0 | 0.0 | 0.00 | 0.26 | 0.00 | 94 | 1011.2 |
| 20260510105003 | 51 | 180 | 0.0 | 0.9 | 0.00 | 0.26 | 0.00 | 94 | 1011.2 |
| 20260510104504 | 51 | 180 | 0.9 | 2.6 | 0.00 | 0.26 | 0.00 | 94 | 1011.1 |
| 20260510104003 | 51 | 166 | 0.9 | 2.6 | 0.00 | 0.26 | 0.00 | 94 | 1011.0 |
| 20260510103503 | 51 | 156 | 0.9 | 2.6 | 0.00 | 0.26 | 0.00 | 94 | 1011.0 |
| 20260510103004 | 51 | 165 | 2.6 | 4.3 | 0.00 | 0.26 | 0.00 | 94 | 1010.7 |
| 20260510102503 | 50 | 147 | 2.6 | 6.1 | 0.00 | 0.26 | 0.00 | 94 | 1010.7 |
| 20260510101503 | 50 | 150 | 1.7 | 2.6 | 0.00 | 0.26 | 0.00 | 94 | 1010.7 |
| 20260510101003 | 50 | 132 | 2.6 | 2.6 | 0.00 | 0.26 | 0.00 | 94 | 1010.7 |
| 20260510100503 | 50 | 149 | 1.7 | 4.3 | 0.00 | 0.26 | 0.00 | 94 | 1010.7 |
| 20260510100004 | 50 | 143 | 1.7 | 4.3 | 0.00 | 0.26 | 0.00 | 94 | 1010.9 |
| 20260510095503 | 50 | 148 | 2.6 | 4.3 | 0.00 | 0.26 | 0.00 | 94 | 1010.7 |
| 20260510095003 | 50 | 138 | 2.6 | 4.3 | 0.00 | 0.26 | 0.00 | 94 | 1010.6 |
| 20260510094503 | 50 | 154 | 2.6 | 5.2 | 0.00 | 0.26 | 0.00 | 94 | 1010.7 |
| 20260510093504 | 49 | 148 | 1.7 | 2.6 | 0.00 | 0.26 | 0.00 | 94 | 1010.9 |
| 20260510093003 | 49 | 138 | 1.7 | 4.3 | 0.00 | 0.26 | 0.00 | 94 | 1010.8 |
| 20260510092504 | 49 | 155 | 2.6 | 5.2 | 0.00 | 0.26 | 0.00 | 94 | 1010.7 |
| 20260510092003 | 49 | 132 | 2.6 | 2.6 | 0.00 | 0.26 | 0.00 | 94 | 1010.7 |
| 20260510090005 | 49 | 153 | 1.7 | 2.6 | 0.00 | 0.26 | 0.00 | 94 | 1010.8 |
| 20260510085504 | 49 | 155 | 0.9 | 2.6 | 0.00 | 0.26 | 0.00 | 94 | 1011.0 |
| 20260510085003 | 49 | 126 | 1.7 | 2.6 | 0.00 | 0.26 | 0.00 | 94 | 1011.1 |
| 20260510084503 | 49 | 144 | 0.0 | 0.0 | 0.00 | 0.26 | 0.00 | 94 | 1011.2 |
| 20260510084003 | 49 | 143 | 0.0 | 2.6 | 0.00 | 0.26 | 0.00 | 94 | 1011.1 |
| 20260510083003 | 49 | 119 | 0.0 | 0.0 | 0.00 | 0.26 | 0.00 | 94 | 1011.2 |
| 20260510082504 | 49 | 119 | 0.0 | 0.0 | 0.00 | 0.26 | 0.00 | 94 | 1011.4 |
| 20260510082004 | 49 | 94 | 0.0 | 0.0 | 0.00 | 0.26 | 0.00 | 94 | 1011.5 |
| 20260510081503 | 48 | 94 | 0.9 | 1.7 | 0.00 | 0.26 | 0.00 | 94 | 1011.6 |
| 20260510081003 | 48 | 94 | 1.7 | 2.6 | 0.00 | 0.26 | 0.00 | 94 | 1011.6 |
| 20260510080003 | 48 | 7 | 0.0 | 0.0 | 0.00 | 0.26 | 0.00 | 94 | 1011.6 |
| 20260510075506 | 48 | 9 | 0.0 | 0.0 | 0.00 | 0.26 | 0.00 | 94 | 1011.6 |
| 20260510075003 | 48 | 9 | 0.0 | 0.0 | 0.00 | 0.26 | 0.00 | 94 | 1011.7 |
| 20260510074503 | 48 | 9 | 0.0 | 0.0 | 0.00 | 0.26 | 0.00 | 93 | 1011.6 |
| 20260510074003 | 48 | 9 | 0.0 | 0.0 | 0.00 | 0.26 | 0.00 | 93 | 1011.6 |
| 20260510073003 | 48 | 9 | 1.7 | 2.6 | 0.00 | 0.26 | 0.00 | 93 | 1011.7 |
| 20260510072504 | 48 | 9 | 0.9 | 4.3 | 0.00 | 0.26 | 0.00 | 93 | 1011.5 |
| 20260510072004 | 48 | 5 | 3.5 | 4.3 | 0.00 | 0.26 | 0.00 | 93 | 1011.6 |
| 20260510071503 | 48 | 136 | 0.0 | 0.0 | 0.00 | 0.26 | 0.00 | 93 | 1010.8 |
| 20260510071003 | 48 | 136 | 0.0 | 0.0 | 0.00 | 0.26 | 0.00 | 93 | 1010.7 |
| 20260510070503 | 48 | 135 | 0.0 | 0.0 | 0.00 | 0.26 | 0.00 | 94 | 1010.8 |
| 20260510070004 | 48 | 135 | 0.0 | 0.0 | 0.00 | 0.26 | 0.00 | 94 | 1010.7 |
| 20260510065503 | 48 | 135 | 0.9 | 1.7 | 0.00 | 0.26 | 0.00 | 93 | 1010.9 |
| 20260510065003 | 48 | 133 | 0.0 | 0.0 | 0.00 | 0.26 | 0.00 | 93 | 1011.0 |
| 20260510064503 | 48 | 133 | 0.0 | 0.0 | 0.00 | 0.26 | 0.00 | 93 | 1010.9 |
| 20260510064003 | 48 | 133 | 0.0 | 0.0 | 0.00 | 0.26 | 0.00 | 93 | 1011.0 |
| 20260510063503 | 48 | 133 | 0.0 | 0.0 | 0.00 | 0.26 | 0.00 | 93 | 1011.0 |
| 20260510063003 | 48 | 133 | 0.0 | 0.0 | 0.00 | 0.26 | 0.00 | 93 | 1011.1 |
| 20260510062504 | 48 | 133 | 0.0 | 0.0 | 0.00 | 0.26 | 0.00 | 93 | 1011.2 |
| 20260510062003 | 48 | 133 | 0.0 | 0.0 | 0.00 | 0.26 | 0.00 | 93 | 1011.1 |
| 20260510061503 | 48 | 133 | 0.0 | 0.0 | 0.00 | 0.26 | 0.00 | 93 | 1011.0 |
| 20260510061004 | 48 | 133 | 0.0 | 0.0 | 0.00 | 0.26 | 0.00 | 93 | 1011.1 |
| 20260510060504 | 48 | 133 | 0.0 | 0.0 | 0.00 | 0.26 | 0.00 | 93 | 1011.1 |
| 20260510060003 | 48 | 133 | 0.0 | 0.0 | 0.00 | 0.26 | 0.00 | 93 | 1011.3 |
| 20260510055503 | 48 | 133 | 0.0 | 0.0 | 0.00 | 0.26 | 0.00 | 93 | 1011.2 |
| 20260510055004 | 48 | 132 | 0.0 | 0.0 | 0.00 | 0.26 | 0.00 | 93 | 1011.2 |
| 20260510054504 | 48 | 132 | 0.0 | 0.0 | 0.00 | 0.26 | 0.00 | 93 | 1011.0 |
| 20260510054003 | 48 | 132 | 0.0 | 0.0 | 0.00 | 0.26 | 0.00 | 93 | 1010.8 |
| 20260510053503 | 48 | 132 | 0.0 | 0.0 | 0.00 | 0.26 | 0.00 | 93 | 1010.6 |
| 20260510053003 | 48 | 132 | 0.0 | 0.0 | 0.00 | 0.26 | 0.00 | 93 | 1010.6 |
| 20260510052503 | 48 | 132 | 0.0 | 0.0 | 0.00 | 0.26 | 0.00 | 93 | 1010.6 |
| 20260510051503 | 48 | 132 | 0.0 | 0.0 | 0.00 | 0.26 | 0.00 | 93 | 1010.6 |
| 20260510051003 | 48 | 136 | 0.0 | 0.0 | 0.00 | 0.26 | 0.00 | 92 | 1010.6 |
| 20260510050004 | 48 | 136 | 0.0 | 0.0 | 0.00 | 0.26 | 0.00 | 93 | 1010.6 |
| 20260510045503 | 48 | 136 | 0.0 | 0.0 | 0.00 | 0.26 | 0.00 | 92 | 1010.7 |
| 20260510045003 | 48 | 136 | 0.0 | 0.0 | 0.00 | 0.26 | 0.00 | 92 | 1010.8 |
| 20260510043004 | 48 | 139 | 0.0 | 0.0 | 0.00 | 0.26 | 0.00 | 92 | 1010.8 |
| 20260510041004 | 49 | 139 | 0.0 | 0.0 | 0.00 | 0.26 | 0.00 | 92 | 1010.7 |
| 20260510040004 | 49 | 139 | 0.0 | 0.0 | 0.00 | 0.26 | 0.00 | 92 | 1010.7 |
| 20260510035004 | 49 | 139 | 0.9 | 2.6 | 0.00 | 0.26 | 0.26 | 92 | 1010.8 |
| 20260510034503 | 49 | 137 | 1.7 | 2.6 | 0.00 | 0.26 | 0.26 | 92 | 1010.8 |
| 20260510034003 | 49 | 140 | 1.7 | 2.6 | 0.00 | 0.26 | 0.26 | 92 | 1010.7 |
| 20260510033004 | 49 | 80 | 0.0 | 0.0 | 0.00 | 0.26 | 0.26 | 92 | 1010.6 |
| 20260510032503 | 49 | 80 | 0.0 | 0.0 | 0.00 | 0.26 | 0.26 | 92 | 1010.6 |
| 20260510032003 | 49 | 78 | 0.0 | 0.0 | 0.00 | 0.26 | 0.26 | 92 | 1010.6 |
| 20260510031503 | 49 | 42 | 0.0 | 0.0 | 0.00 | 0.26 | 0.26 | 92 | 1010.6 |
| 20260510031003 | 49 | 43 | 0.0 | 0.9 | 0.00 | 0.26 | 0.26 | 92 | 1010.4 |
| 20260510030504 | 49 | 42 | 0.0 | 0.9 | 0.00 | 0.26 | 0.26 | 91 | 1010.4 |
| 20260510030003 | 49 | 42 | 0.0 | 0.9 | 0.00 | 0.26 | 0.26 | 92 | 1010.3 |
| 20260510025503 | 50 | 42 | 0.9 | 2.6 | 0.00 | 0.26 | 0.26 | 91 | 1010.3 |
| 20260510025004 | 50 | 142 | 0.0 | 0.0 | 0.00 | 0.26 | 0.26 | 91 | 1010.4 |
| 20260510024503 | 50 | 142 | 0.0 | 0.0 | 0.00 | 0.26 | 0.26 | 91 | 1010.5 |
| 20260510024003 | 50 | 142 | 0.0 | 0.0 | 0.00 | 0.26 | 0.26 | 91 | 1010.5 |
| 20260510023503 | 50 | 142 | 0.9 | 1.7 | 0.00 | 0.26 | 0.26 | 91 | 1010.6 |
| 20260510023003 | 50 | 141 | 0.0 | 0.0 | 0.00 | 0.26 | 0.26 | 91 | 1010.6 |
| 20260510022504 | 50 | 138 | 0.9 | 1.7 | 0.00 | 0.26 | 0.26 | 91 | 1010.5 |
| 20260510022004 | 50 | 140 | 0.9 | 2.6 | 0.00 | 0.26 | 0.26 | 91 | 1010.5 |
| 20260510021503 | 50 | 145 | 1.7 | 2.6 | 0.00 | 0.26 | 0.26 | 91 | 1010.5 |
| 20260510020504 | 51 | 135 | 0.9 | 2.6 | 0.00 | 0.26 | 0.26 | 91 | 1010.4 |
| 20260510020005 | 51 | 142 | 0.9 | 2.6 | 0.00 | 0.26 | 0.26 | 91 | 1010.5 |
| 20260510015002 | 51 | 176 | 1.7 | 2.6 | 0.00 | 0.26 | 0.26 | 91 | 1010.4 |
| 20260510014503 | 51 | 155 | 1.7 | 4.3 | 0.00 | 0.26 | 0.26 | 91 | 1010.4 |
| 20260510014003 | 51 | 168 | 1.7 | 4.3 | 0.00 | 0.26 | 0.26 | 91 | 1010.4 |
| 20260510013503 | 51 | 159 | 0.9 | 2.6 | 0.00 | 0.26 | 0.26 | 91 | 1010.3 |
| 20260510013004 | 51 | 134 | 0.9 | 2.6 | 0.00 | 0.26 | 0.26 | 91 | 1010.4 |
| 20260510011503 | 51 | 125 | 0.9 | 2.6 | 0.00 | 0.26 | 0.26 | 91 | 1010.5 |
| 20260510011004 | 51 | 177 | 0.9 | 2.6 | 0.00 | 0.26 | 0.26 | 91 | 1010.4 |
| 20260510010502 | 51 | 138 | 0.9 | 1.7 | 0.00 | 0.26 | 0.26 | 90 | 1010.3 |
| 20260510010004 | 51 | 153 | 1.7 | 4.3 | 0.00 | 0.26 | 0.26 | 91 | 1010.1 |
| 20260510005503 | 52 | 176 | 1.7 | 2.6 | 0.00 | 0.26 | 0.26 | 90 | 1010.1 |
| 20260510005004 | 52 | 180 | 1.7 | 4.3 | 0.00 | 0.26 | 0.26 | 90 | 1010.0 |
| 20260510004504 | 52 | 149 | 1.7 | 5.2 | 0.00 | 0.26 | 0.26 | 90 | 1010.1 |
| 20260510004003 | 52 | 129 | 1.7 | 2.6 | 0.00 | 0.26 | 0.26 | 90 | 1009.9 |
| 20260510003503 | 52 | 153 | 1.7 | 4.3 | 0.00 | 0.26 | 0.26 | 90 | 1009.9 |
| 20260510003003 | 52 | 123 | 1.7 | 5.2 | 0.00 | 0.26 | 0.26 | 90 | 1009.8 |
| 20260510002503 | 52 | 125 | 1.7 | 4.3 | 0.00 | 0.26 | 0.26 | 90 | 1009.9 |
| 20260510002002 | 52 | 133 | 2.6 | 4.3 | 0.00 | 0.26 | 0.26 | 90 | 1009.9 |
| 20260510001504 | 52 | 154 | 1.7 | 4.3 | 0.00 | 0.26 | 0.26 | 90 | 1009.8 |
| 20260510001003 | 53 | 154 | 2.6 | 5.2 | 0.00 | 0.26 | 0.26 | 89 | 1009.8 |
| 20260510000504 | 53 | 145 | 1.7 | 4.3 | 0.00 | 0.26 | 0.26 | 89 | 1009.8 |
| 20260510000003 | 53 | 130 | 2.6 | 4.3 | 0.00 | 0.26 | 0.26 | 89 | 1009.7 |
| 20260509235503 | 53 | 149 | 2.6 | 5.2 | 0.00 | 0.26 | 0.26 | 89 | 1009.7 |
| 20260509235003 | 54 | 150 | 2.6 | 5.2 | 0.00 | 0.26 | 0.26 | 88 | 1009.7 |
| 20260509234503 | 54 | 149 | 1.7 | 4.3 | 0.00 | 0.26 | 0.26 | 89 | 1009.5 |
| 20260509234003 | 54 | 135 | 2.6 | 5.2 | 0.00 | 0.26 | 0.26 | 88 | 1009.4 |
| 20260509233003 | 54 | 148 | 1.7 | 4.3 | 0.00 | 0.26 | 0.26 | 88 | 1009.3 |
| 20260509232502 | 54 | 163 | 2.6 | 6.1 | 0.00 | 0.26 | 0.26 | 88 | 1009.2 |
| 20260509232003 | 55 | 134 | 1.7 | 4.3 | 0.00 | 0.26 | 0.26 | 88 | 1009.3 |
| 20260509231503 | 55 | 151 | 1.7 | 4.3 | 0.00 | 0.26 | 0.26 | 87 | 1009.4 |
| 20260509231003 | 55 | 159 | 1.7 | 4.3 | 0.00 | 0.26 | 0.26 | 87 | 1009.3 |
| 20260509230503 | 55 | 192 | 0.9 | 4.3 | 0.00 | 0.26 | 0.26 | 86 | 1009.4 |
| 20260509230003 | 55 | 154 | 1.7 | 4.3 | 0.00 | 0.26 | 0.26 | 86 | 1009.2 |
| 20260509225503 | 56 | 152 | 1.7 | 2.6 | 0.00 | 0.26 | 0.26 | 86 | 1009.3 |
| 20260509224503 | 56 | 158 | 0.9 | 2.6 | 0.00 | 0.26 | 0.26 | 85 | 1009.4 |
| 20260509224003 | 56 | 212 | 0.0 | 0.0 | 0.00 | 0.26 | 0.26 | 85 | 1009.5 |
| 20260509223503 | 56 | 236 | 0.0 | 2.6 | 0.00 | 0.26 | 0.26 | 86 | 1009.5 |
| 20260509223004 | 56 | 135 | 0.9 | 1.7 | 0.00 | 0.26 | 0.26 | 86 | 1009.6 |
| 20260509222502 | 56 | 168 | 0.0 | 2.6 | 0.00 | 0.26 | 0.26 | 86 | 1009.7 |
| 20260509222002 | 56 | 298 | 0.9 | 2.6 | 0.00 | 0.26 | 0.26 | 86 | 1009.8 |
| 20260509221503 | 56 | 292 | 0.0 | 1.7 | 0.00 | 0.26 | 0.26 | 88 | 1009.7 |
| 20260509221003 | 56 | 175 | 0.0 | 2.6 | 0.00 | 0.26 | 0.26 | 89 | 1009.7 |
| 20260509220503 | 55 | 169 | 0.0 | 2.6 | 0.00 | 0.26 | 0.26 | 90 | 1009.7 |
| 20260509220003 | 55 | 281 | 0.9 | 1.7 | 0.00 | 0.26 | 0.26 | 90 | 1009.7 |
| 20260509215503 | 54 | 264 | 0.0 | 0.0 | 0.00 | 0.26 | 0.26 | 91 | 1009.7 |
| 20260509215003 | 54 | 263 | 0.0 | 0.0 | 0.00 | 0.26 | 0.26 | 90 | 1009.8 |
| 20260509214503 | 53 | 265 | 0.0 | 0.0 | 0.00 | 0.26 | 0.26 | 90 | 1009.8 |
| 20260509214003 | 53 | 307 | 0.9 | 2.6 | 0.00 | 0.26 | 0.26 | 90 | 1009.8 |
| 20260509213503 | 53 | 206 | 0.0 | 0.0 | 0.00 | 0.26 | 0.26 | 90 | 1009.9 |
| 20260509213002 | 53 | 301 | 0.0 | 1.7 | 0.00 | 0.26 | 0.26 | 90 | 1009.9 |
| 20260509212503 | 53 | 300 | 0.0 | 2.6 | 0.00 | 0.26 | 0.26 | 90 | 1009.9 |
| 20260509212003 | 53 | 314 | 0.9 | 2.6 | 0.01 | 0.26 | 0.26 | 90 | 1009.9 |
| 20260509211003 | 53 | 294 | 0.0 | 1.7 | 0.02 | 0.26 | 0.26 | 90 | 1009.9 |
| 20260509210503 | 53 | 294 | 1.7 | 2.6 | 0.02 | 0.26 | 0.26 | 90 | 1009.8 |
| 20260509210003 | 53 | 184 | 0.0 | 2.6 | 0.03 | 0.26 | 0.26 | 91 | 1009.9 |
| 20260509205003 | 52 | 209 | 0.0 | 1.7 | 0.04 | 0.26 | 0.26 | 90 | 1009.8 |
| 20260509204503 | 52 | 247 | 0.0 | 0.0 | 0.04 | 0.26 | 0.26 | 90 | 1009.9 |
| 20260509204003 | 52 | 270 | 0.0 | 2.6 | 0.05 | 0.26 | 0.26 | 90 | 1009.9 |
| 20260509203003 | 52 | 305 | 0.0 | 1.7 | 0.06 | 0.28 | 0.26 | 91 | 1010.0 |
| 20260509202503 | 52 | 244 | 0.0 | 2.6 | 0.07 | 0.28 | 0.26 | 91 | 1010.1 |
| 20260509202003 | 52 | 267 | 0.0 | 0.0 | 0.06 | 0.28 | 0.25 | 90 | 1010.1 |
| 20260509201503 | 52 | 276 | 0.0 | 2.6 | 0.07 | 0.28 | 0.25 | 90 | 1010.2 |
| 20260509200503 | 52 | 349 | 0.9 | 6.1 | 0.07 | 0.27 | 0.24 | 90 | 1010.3 |
| 20260509200003 | 52 | 313 | 0.9 | 2.6 | 0.07 | 0.26 | 0.23 | 90 | 1010.5 |
| 20260509195503 | 52 | 297 | 1.7 | 6.1 | 0.08 | 0.26 | 0.23 | 90 | 1010.6 |
| 20260509194503 | 52 | 298 | 2.6 | 7.8 | 0.08 | 0.25 | 0.22 | 90 | 1010.9 |
| 20260509194003 | 52 | 304 | 0.9 | 4.3 | 0.08 | 0.24 | 0.21 | 90 | 1010.9 |
| 20260509193503 | 52 | 256 | 1.7 | 5.2 | 0.08 | 0.24 | 0.21 | 90 | 1010.9 |
| 20260509193003 | 52 | 324 | 0.9 | 5.2 | 0.08 | 0.23 | 0.20 | 90 | 1011.1 |
| 20260509192503 | 52 | 227 | 0.9 | 2.6 | 0.07 | 0.22 | 0.19 | 90 | 1011.0 |
| 20260509192004 | 53 | 286 | 1.7 | 2.6 | 0.07 | 0.22 | 0.19 | 90 | 1010.9 |
| 20260509191503 | 53 | 281 | 1.7 | 7.8 | 0.08 | 0.21 | 0.18 | 90 | 1011.0 |
| 20260509191003 | 53 | 282 | 0.0 | 2.6 | 0.09 | 0.21 | 0.18 | 90 | 1011.0 |
| 20260509190003 | 53 | 286 | 0.9 | 2.6 | 0.10 | 0.19 | 0.16 | 90 | 1011.2 |
| 20260509185003 | 53 | 288 | 0.0 | 2.6 | 0.10 | 0.17 | 0.14 | 90 | 1011.2 |
| 20260509184503 | 53 | 287 | 0.0 | 2.6 | 0.11 | 0.17 | 0.14 | 90 | 1011.1 |
| 20260509184003 | 53 | 296 | 0.0 | 1.7 | 0.10 | 0.16 | 0.13 | 89 | 1011.1 |
| 20260509183503 | 53 | 291 | 1.7 | 2.6 | 0.11 | 0.16 | 0.13 | 89 | 1011.1 |
| 20260509183003 | 53 | 269 | 0.0 | 2.6 | 0.10 | 0.15 | 0.12 | 88 | 1011.1 |
| 20260509182503 | 53 | 294 | 0.0 | 0.0 | 0.10 | 0.15 | 0.12 | 89 | 1010.9 |
| 20260509182003 | 53 | 205 | 0.0 | 0.9 | 0.10 | 0.15 | 0.12 | 89 | 1010.9 |
| 20260509181003 | 53 | 313 | 0.9 | 5.2 | 0.07 | 0.12 | 0.09 | 88 | 1011.5 |
| 20260509180502 | 53 | 239 | 1.7 | 5.2 | 0.05 | 0.10 | 0.07 | 87 | 1011.7 |
| 20260509180004 | 54 | 253 | 0.0 | 2.6 | 0.04 | 0.09 | 0.06 | 87 | 1011.7 |
| 20260509175506 | 54 | 264 | 2.6 | 4.3 | 0.02 | 0.07 | 0.04 | 86 | 1011.6 |
| 20260509175003 | 54 | 294 | 1.7 | 4.3 | 0.02 | 0.07 | 0.04 | 86 | 1011.5 |
| 20260509174503 | 54 | 250 | 1.7 | 7.0 | 0.01 | 0.06 | 0.03 | 86 | 1011.5 |
| 20260509174004 | 54 | 264 | 1.7 | 5.2 | 0.01 | 0.06 | 0.03 | 85 | 1011.5 |
| 20260509173503 | 54 | 239 | 0.9 | 4.3 | 0.00 | 0.05 | 0.02 | 85 | 1011.4 |
| 20260509173004 | 54 | 323 | 1.7 | 6.1 | 0.01 | 0.05 | 0.02 | 84 | 1011.3 |
| 20260509172503 | 54 | 267 | 4.3 | 8.7 | 0.01 | 0.05 | 0.02 | 85 | 1011.3 |
| 20260509172004 | 54 | 339 | 2.6 | 5.2 | 0.01 | 0.05 | 0.02 | 85 | 1011.4 |
| 20260509171503 | 55 | 299 | 2.6 | 6.1 | 0.01 | 0.05 | 0.02 | 84 | 1011.4 |
| 20260509171003 | 55 | 333 | 2.6 | 6.1 | 0.01 | 0.05 | 0.02 | 84 | 1011.4 |
| 20260509170503 | 55 | 190 | 1.7 | 7.0 | 0.01 | 0.05 | 0.02 | 84 | 1011.3 |
| 20260509165502 | 55 | 206 | 3.5 | 7.8 | 0.01 | 0.05 | 0.02 | 82 | 1011.3 |
| 20260509165003 | 55 | 230 | 4.3 | 8.7 | 0.01 | 0.05 | 0.02 | 83 | 1011.4 |
| 20260509164003 | 55 | 244 | 2.6 | 7.0 | 0.01 | 0.05 | 0.02 | 84 | 1011.3 |
| 20260509163504 | 55 | 287 | 2.6 | 8.7 | 0.01 | 0.05 | 0.02 | 84 | 1011.2 |
| 20260509163003 | 55 | 299 | 1.7 | 5.2 | 0.00 | 0.04 | 0.01 | 84 | 1011.3 |
| 20260509162503 | 55 | 279 | 1.7 | 5.2 | 0.00 | 0.04 | 0.01 | 83 | 1011.2 |
| 20260509161503 | 55 | 213 | 1.7 | 4.3 | 0.00 | 0.04 | 0.01 | 85 | 1011.1 |
| 20260509161003 | 55 | 150 | 0.9 | 5.2 | 0.00 | 0.04 | 0.01 | 85 | 1011.1 |
| 20260509160504 | 55 | 263 | 0.0 | 2.6 | 0.00 | 0.04 | 0.01 | 85 | 1011.2 |
| 20260509155002 | 55 | 173 | 0.0 | 0.0 | 0.01 | 0.04 | 0.01 | 86 | 1011.5 |
| 20260509154503 | 55 | 298 | 0.9 | 2.6 | 0.01 | 0.04 | 0.01 | 86 | 1011.5 |
| 20260509154003 | 55 | 299 | 1.7 | 2.6 | 0.01 | 0.04 | 0.01 | 85 | 1011.5 |
| 20260509153502 | 55 | 256 | 0.9 | 2.6 | 0.01 | 0.04 | 0.01 | 85 | 1011.5 |
| 20260509153003 | 55 | 302 | 0.9 | 2.6 | 0.01 | 0.04 | 0.01 | 85 | 1011.5 |
| 20260509152503 | 55 | 295 | 2.6 | 4.3 | 0.01 | 0.04 | 0.01 | 85 | 1011.5 |
| 20260509151503 | 55 | 293 | 0.0 | 1.7 | 0.01 | 0.04 | 0.01 | 85 | 1011.7 |
| 20260509151003 | 55 | 302 | 0.9 | 4.3 | 0.01 | 0.04 | 0.01 | 84 | 1011.9 |
| 20260509150503 | 55 | 212 | 0.0 | 4.3 | 0.01 | 0.04 | 0.01 | 84 | 1011.9 |
| 20260509150003 | 55 | 295 | 0.9 | 2.6 | 0.01 | 0.04 | 0.01 | 84 | 1011.8 |
| 20260509145504 | 55 | 217 | 0.9 | 2.6 | 0.00 | 0.03 | 0.00 | 83 | 1011.8 |
| 20260509145003 | 55 | 212 | 1.7 | 2.6 | 0.00 | 0.03 | 0.00 | 82 | 1011.8 |
| 20260509144003 | 55 | 223 | 1.7 | 7.8 | 0.00 | 0.03 | 0.00 | 81 | 1011.8 |
| 20260509143504 | 55 | 289 | 1.7 | 7.0 | 0.00 | 0.03 | 0.00 | 80 | 1011.7 |
| 20260509143003 | 55 | 315 | 1.7 | 7.0 | 0.00 | 0.03 | 0.00 | 80 | 1011.5 |
| 20260509142503 | 55 | 273 | 1.7 | 5.2 | 0.00 | 0.03 | 0.00 | 80 | 1011.3 |
| 20260509142003 | 55 | 183 | 1.7 | 5.2 | 0.00 | 0.03 | 0.00 | 80 | 1011.3 |
| 20260509141505 | 55 | 210 | 2.6 | 4.3 | 0.00 | 0.03 | 0.00 | 80 | 1011.3 |
| 20260509141003 | 54 | 175 | 0.9 | 4.3 | 0.00 | 0.03 | 0.00 | 81 | 1011.3 |
| 20260509140503 | 54 | 195 | 0.9 | 2.6 | 0.00 | 0.03 | 0.00 | 82 | 1011.2 |
| 20260509140003 | 54 | 247 | 0.0 | 2.6 | 0.00 | 0.03 | 0.00 | 82 | 1011.1 |
| 20260509135503 | 53 | 289 | 0.9 | 2.6 | 0.00 | 0.03 | 0.00 | 82 | 1011.3 |
| 20260509135003 | 53 | 100 | 0.0 | 1.7 | 0.00 | 0.03 | 0.00 | 82 | 1011.4 |
| 20260509134503 | 53 | 132 | 0.9 | 2.6 | 0.00 | 0.03 | 0.00 | 82 | 1011.4 |
| 20260509134003 | 53 | 152 | 3.5 | 6.1 | 0.00 | 0.03 | 0.00 | 81 | 1011.4 |
| 20260509133504 | 53 | 165 | 1.7 | 6.1 | 0.00 | 0.03 | 0.00 | 81 | 1011.5 |
| 20260509133004 | 53 | 178 | 1.7 | 5.2 | 0.00 | 0.03 | 0.00 | 81 | 1011.5 |
| 20260509132503 | 53 | 151 | 3.5 | 7.0 | 0.00 | 0.03 | 0.00 | 80 | 1011.6 |
| 20260509132003 | 53 | 144 | 1.7 | 5.2 | 0.00 | 0.03 | 0.00 | 80 | 1011.6 |
| 20260509131503 | 53 | 182 | 2.6 | 5.2 | 0.00 | 0.03 | 0.00 | 80 | 1011.6 |
| 20260509131003 | 53 | 125 | 1.7 | 6.1 | 0.00 | 0.03 | 0.00 | 80 | 1011.6 |
| 20260509130503 | 53 | 139 | 1.7 | 5.2 | 0.00 | 0.03 | 0.00 | 80 | 1011.7 |
| 20260509130003 | 53 | 153 | 1.7 | 4.3 | 0.00 | 0.03 | 0.00 | 80 | 1011.7 |
| 20260509125503 | 53 | 110 | 1.7 | 2.6 | 0.00 | 0.03 | 0.00 | 79 | 1011.6 |
| 20260509125003 | 52 | 141 | 1.7 | 4.3 | 0.00 | 0.03 | 0.00 | 79 | 1011.9 |
| 20260509124503 | 52 | 174 | 0.9 | 2.6 | 0.00 | 0.03 | 0.00 | 79 | 1011.9 |
| 20260509124003 | 52 | 154 | 0.9 | 2.6 | 0.00 | 0.03 | 0.00 | 79 | 1011.7 |
| 20260509123503 | 52 | 146 | 1.7 | 2.6 | 0.00 | 0.03 | 0.00 | 79 | 1011.6 |
| 20260509123003 | 52 | 200 | 0.0 | 0.0 | 0.00 | 0.03 | 0.00 | 79 | 1011.7 |
| 20260509122503 | 52 | 201 | 0.9 | 2.6 | 0.00 | 0.03 | 0.00 | 79 | 1011.8 |
| 20260509122003 | 52 | 168 | 0.9 | 2.6 | 0.00 | 0.03 | 0.00 | 79 | 1011.9 |
| 20260509121503 | 52 | 178 | 0.9 | 2.6 | 0.00 | 0.03 | 0.00 | 79 | 1011.9 |
| 20260509121006 | 52 | 154 | 1.7 | 2.6 | 0.00 | 0.03 | 0.00 | 79 | 1011.8 |
| 20260509120502 | 51 | 140 | 1.7 | 4.3 | 0.00 | 0.03 | 0.00 | 79 | 1011.8 |